Time;durP1;ratioP1;P1;durP2;ratioP2;P2;SDS_P1;SDS_P2;PMS_P1;PMS_P2;Temp;Humidity;BMP_temperature;BMP_pressure;BME280_temperature;BME280_humidity;BME280_pressure;Samples;Min_cycle;Max_cycle;Signal;HPM_P1;HPM_P2
2022/12/13 00:00:13;;;;;;;28.10;15.63;;;0.30;99.90;;;;;;5033528;28;20721;-73
2022/12/13 00:02:42;;;;;;;28.73;18.00;;;0.30;99.90;;;;;;5033412;28;20432;-73
2022/12/13 00:05:08;;;;;;;31.13;18.23;;;0.20;99.90;;;;;;5028649;28;21052;-74
2022/12/13 00:07:34;;;;;;;31.30;18.07;;;0.20;99.90;;;;;;5032277;28;20516;-73
2022/12/13 00:09:59;;;;;;;24.43;17.47;;;0.20;99.90;;;;;;5031944;28;20476;-73
2022/12/13 00:12:25;;;;;;;34.80;18.30;;;0.20;99.90;;;;;;5031791;28;20566;-73
2022/12/13 00:14:51;;;;;;;32.07;16.47;;;0.10;99.90;;;;;;5031368;28;20262;-73
2022/12/13 00:17:16;;;;;;;25.67;16.07;;;0.10;99.90;;;;;;5032064;28;20763;-72
2022/12/13 00:19:42;;;;;;;35.63;17.67;;;0.00;99.90;;;;;;5037075;28;20205;-73
2022/12/13 00:22:07;;;;;;;30.27;18.47;;;0.10;99.90;;;;;;5018258;28;20643;-73
2022/12/13 00:24:33;;;;;;;32.17;17.83;;;0.10;99.90;;;;;;5035328;28;20202;-73
2022/12/13 00:26:59;;;;;;;34.37;18.70;;;0.00;99.90;;;;;;5035454;28;20713;-73
2022/12/13 00:29:25;;;;;;;27.00;17.27;;;0.00;99.90;;;;;;5036889;28;20446;-73
2022/12/13 00:31:50;;;;;;;28.40;17.83;;;0.00;99.90;;;;;;5034221;28;20212;-73
2022/12/13 00:34:17;;;;;;;32.93;17.60;;;0.00;99.90;;;;;;5032603;28;20210;-74
2022/12/13 00:36:43;;;;;;;33.50;18.90;;;-0.10;99.90;;;;;;5035825;28;20562;-74
2022/12/13 00:39:11;;;;;;;33.10;18.47;;;-0.10;99.90;;;;;;5031697;28;20466;-74
2022/12/13 00:41:37;;;;;;;28.80;16.80;;;-0.10;99.90;;;;;;5034311;28;20422;-74
2022/12/13 00:44:03;;;;;;;30.23;17.77;;;-0.10;99.90;;;;;;5036012;28;20985;-73
2022/12/13 00:46:29;;;;;;;29.67;17.50;;;-0.10;99.90;;;;;;5035214;28;20187;-74
2022/12/13 00:48:57;;;;;;;29.60;16.17;;;-0.10;99.90;;;;;;5032470;28;20575;-74
2022/12/13 00:51:25;;;;;;;32.33;19.70;;;-0.10;99.90;;;;;;5033428;28;20441;-74
2022/12/13 00:53:50;;;;;;;29.50;16.77;;;-0.10;99.90;;;;;;5032708;28;20475;-73
2022/12/13 00:56:20;;;;;;;33.10;17.97;;;-0.20;99.90;;;;;;5038319;28;20718;-73
2022/12/13 00:58:47;;;;;;;29.17;16.83;;;-0.20;99.90;;;;;;5032050;28;20192;-75
2022/12/13 01:01:14;;;;;;;25.07;17.00;;;-0.20;99.90;;;;;;5037410;28;20480;-75
2022/12/13 01:03:40;;;;;;;30.00;17.80;;;-0.20;99.90;;;;;;5036135;28;21712;-75
2022/12/13 01:06:14;;;;;;;27.90;16.70;;;-0.20;99.90;;;;;;5036211;28;20493;-73
2022/12/13 01:08:40;;;;;;;34.47;17.37;;;-0.20;99.90;;;;;;5035411;28;21050;-74
2022/12/13 01:11:06;;;;;;;32.80;18.27;;;-0.20;99.90;;;;;;5034474;28;20528;-74
2022/12/13 01:13:32;;;;;;;29.93;17.00;;;-0.30;99.90;;;;;;5040168;28;20467;-73
2022/12/13 01:16:00;;;;;;;29.43;17.00;;;-0.30;99.90;;;;;;5036947;28;20425;-73
2022/12/13 01:18:25;;;;;;;28.10;16.70;;;-0.30;99.90;;;;;;5037757;28;20467;-75
2022/12/13 01:21:05;;;;;;;29.40;17.53;;;-0.30;99.90;;;;;;5033987;28;20471;-75
2022/12/13 01:23:32;;;;;;;30.37;18.40;;;-0.30;99.90;;;;;;5035809;28;20281;-74
2022/12/13 01:26:00;;;;;;;33.60;18.33;;;-0.30;99.90;;;;;;5034922;28;20439;-74
2022/12/13 01:28:26;;;;;;;24.47;16.30;;;-0.30;99.90;;;;;;5033240;28;20428;-74
2022/12/13 01:31:00;;;;;;;29.27;17.43;;;-0.40;99.90;;;;;;5033681;28;21049;-74
2022/12/13 01:33:27;;;;;;;35.00;17.60;;;-0.30;99.90;;;;;;5036725;28;20787;-74
2022/12/13 01:35:52;;;;;;;30.63;17.20;;;-0.40;99.90;;;;;;5032865;28;20561;-74
2022/12/13 01:38:19;;;;;;;30.13;17.27;;;-0.30;99.90;;;;;;5038582;28;20522;-74
2022/12/13 01:40:56;;;;;;;32.57;16.97;;;-0.40;99.90;;;;;;5038038;28;20226;-74
2022/12/13 01:43:24;;;;;;;31.17;18.90;;;-0.40;99.90;;;;;;5035163;28;20470;-74
2022/12/13 01:45:50;;;;;;;35.23;17.53;;;-0.40;99.90;;;;;;5033971;28;21249;-74
2022/12/13 01:48:21;;;;;;;28.77;16.43;;;-0.40;99.90;;;;;;5032812;28;20702;-73
2022/12/13 01:50:51;;;;;;;34.73;16.70;;;-0.40;99.90;;;;;;5032191;28;20509;-74
2022/12/13 01:53:23;;;;;;;26.30;16.70;;;-0.40;99.90;;;;;;5036072;28;20501;-74
2022/12/13 01:55:56;;;;;;;35.10;17.77;;;-0.40;99.90;;;;;;5030305;28;21062;-73
2022/12/13 01:58:23;;;;;;;26.87;15.40;;;-0.40;99.90;;;;;;5036894;28;20422;-74
2022/12/13 02:00:49;;;;;;;24.73;15.80;;;-0.40;99.90;;;;;;5032138;28;20559;-74
2022/12/13 02:03:16;;;;;;;30.03;17.33;;;-0.40;99.90;;;;;;5031873;28;20442;-72
2022/12/13 02:05:56;;;;;;;26.27;16.63;;;-0.50;99.90;;;;;;5032469;28;20441;-73
2022/12/13 02:08:24;;;;;;;24.93;17.50;;;-0.50;99.90;;;;;;5035327;28;20435;-73
2022/12/13 02:10:50;;;;;;;26.77;17.80;;;-0.50;99.90;;;;;;5033120;28;20943;-73
2022/12/13 02:13:15;;;;;;;33.63;18.33;;;-0.50;99.90;;;;;;5021221;28;20426;-73
2022/12/13 02:16:09;;;;;;;30.00;18.40;;;-0.50;99.90;;;;;;5034771;28;20186;-74
2022/12/13 02:18:56;;;;;;;28.50;17.33;;;-0.60;99.90;;;;;;5036108;28;20186;-74
2022/12/13 02:21:48;;;;;;;31.80;16.43;;;-0.50;99.90;;;;;;5035941;28;20442;-73
2022/12/13 02:24:33;;;;;;;25.67;17.40;;;-0.60;99.90;;;;;;5034854;28;20796;-75
2022/12/13 02:27:10;;;;;;;31.40;17.90;;;-0.60;99.90;;;;;;5035008;28;20424;-74
2022/12/13 02:29:54;;;;;;;31.13;17.90;;;-0.60;99.90;;;;;;5037717;28;20426;-74
2022/12/13 02:32:32;;;;;;;32.83;18.77;;;-0.60;99.90;;;;;;5036176;28;20441;-74
2022/12/13 02:35:10;;;;;;;32.47;19.23;;;-0.70;99.90;;;;;;5037193;28;20451;-74
2022/12/13 02:37:54;;;;;;;27.43;17.80;;;-0.70;99.90;;;;;;5034356;28;20453;-73
2022/12/13 02:40:31;;;;;;;34.83;18.63;;;-0.70;99.90;;;;;;5033320;28;20475;-73
2022/12/13 02:43:00;;;;;;;30.40;16.50;;;-0.70;99.90;;;;;;5030026;28;20519;-74
2022/12/13 02:45:43;;;;;;;28.77;16.00;;;-0.70;99.90;;;;;;5033842;28;20469;-74
2022/12/13 02:48:12;;;;;;;36.23;17.53;;;-0.70;99.90;;;;;;5033448;28;20438;-73
2022/12/13 02:50:38;;;;;;;33.33;18.10;;;-0.70;99.90;;;;;;5034083;28;20440;-74
2022/12/13 02:53:05;;;;;;;33.60;16.13;;;-0.70;99.90;;;;;;5036530;28;20430;-74
2022/12/13 02:55:34;;;;;;;28.73;17.57;;;-0.80;99.90;;;;;;5033518;28;20447;-73
2022/12/13 02:58:00;;;;;;;28.13;16.67;;;-0.80;99.90;;;;;;5038618;28;20456;-73
2022/12/13 03:01:02;;;;;;;30.27;17.53;;;-0.80;99.90;;;;;;5029735;28;20487;-73
2022/12/13 03:03:42;;;;;;;30.50;17.20;;;-0.80;99.90;;;;;;5032784;28;20192;-73
2022/12/13 03:06:34;;;;;;;31.20;19.20;;;-0.90;99.90;;;;;;5031212;28;20525;-73
2022/12/13 03:09:23;;;;;;;34.40;17.80;;;-0.90;99.90;;;;;;5029349;28;20444;-73
2022/12/13 03:14:42;;;;;;;28.47;15.83;;;-1.00;99.90;;;;;;5034700;28;20993;-73
2022/12/13 03:17:13;;;;;;;41.27;18.23;;;-1.00;99.90;;;;;;5027463;28;20439;-73
2022/12/13 03:19:38;;;;;;;31.50;18.73;;;-1.00;99.90;;;;;;5032746;28;20464;-72
2022/12/13 03:22:05;;;;;;;29.87;15.67;;;-1.00;99.90;;;;;;5029536;28;20519;-72
2022/12/13 03:24:31;;;;;;;34.13;18.90;;;-1.10;99.90;;;;;;5029614;28;20733;-72
2022/12/13 03:26:56;;;;;;;28.37;16.70;;;-1.10;99.90;;;;;;5029925;28;20670;-72
2022/12/13 03:29:22;;;;;;;35.23;18.17;;;-1.10;99.90;;;;;;5026143;28;20189;-74
2022/12/13 03:31:48;;;;;;;31.37;18.17;;;-1.10;99.90;;;;;;5032413;28;20188;-74
2022/12/13 03:34:14;;;;;;;30.80;17.37;;;-1.10;99.90;;;;;;5034553;28;20296;-74
2022/12/13 03:36:40;;;;;;;35.93;19.70;;;-1.20;99.90;;;;;;5034819;28;20517;-74
2022/12/13 03:39:06;;;;;;;31.60;17.37;;;-1.10;99.90;;;;;;5033420;28;20220;-73
2022/12/13 03:41:32;;;;;;;38.33;17.53;;;-1.20;99.90;;;;;;5032718;28;20253;-73
2022/12/13 03:44:02;;;;;;;27.77;16.47;;;-1.20;99.90;;;;;;5031152;28;20448;-74
2022/12/13 03:46:27;;;;;;;32.73;18.07;;;-1.20;99.90;;;;;;5031100;28;20430;-73
2022/12/13 03:48:53;;;;;;;29.03;17.73;;;-1.30;99.90;;;;;;5026035;28;20857;-73
2022/12/13 03:51:18;;;;;;;26.67;15.80;;;-1.20;99.90;;;;;;5036162;28;20218;-72
2022/12/13 03:53:44;;;;;;;32.23;18.20;;;-1.30;99.90;;;;;;5027108;28;20282;-72
2022/12/13 03:56:09;;;;;;;31.90;18.37;;;-1.30;99.90;;;;;;5028309;28;22058;-72
2022/12/13 03:58:35;;;;;;;31.50;17.53;;;-1.30;99.90;;;;;;5034923;28;20716;-73
2022/12/13 04:01:00;;;;;;;33.10;17.97;;;-1.30;99.90;;;;;;5029275;28;20217;-74
2022/12/13 04:03:26;;;;;;;28.77;16.20;;;-1.30;99.90;;;;;;5032708;28;20217;-73
2022/12/13 04:05:52;;;;;;;32.93;18.00;;;-1.30;99.90;;;;;;5029460;28;20194;-73
2022/12/13 04:08:17;;;;;;;32.73;17.30;;;-1.30;99.90;;;;;;5032854;28;20834;-73
2022/12/13 04:10:43;;;;;;;31.43;17.80;;;-1.30;99.90;;;;;;5035958;28;20191;-73
2022/12/13 04:15:54;;;;;;;33.40;18.07;;;-1.30;99.90;;;;;;5027581;28;20242;-73
2022/12/13 04:18:20;;;;;;;37.90;18.97;;;-1.40;99.90;;;;;;5034637;28;20470;-73
2022/12/13 04:20:46;;;;;;;38.30;18.60;;;-1.40;99.90;;;;;;5028950;28;20293;-73
2022/12/13 04:23:12;;;;;;;34.07;18.60;;;-1.40;99.90;;;;;;5015064;28;20428;-73
2022/12/13 04:25:38;;;;;;;39.37;20.20;;;-1.40;99.90;;;;;;5016356;28;20441;-75
2022/12/13 04:28:04;;;;;;;30.60;16.27;;;-1.40;99.90;;;;;;5026585;28;20930;-73
2022/12/13 04:30:30;;;;;;;34.17;18.90;;;-1.40;99.90;;;;;;5029086;28;20442;-75
2022/12/13 04:32:55;;;;;;;33.27;19.07;;;-1.40;99.90;;;;;;5029928;28;20427;-75
2022/12/13 04:35:21;;;;;;;35.10;18.40;;;-1.40;99.90;;;;;;5013942;28;20237;-74
2022/12/13 04:37:47;;;;;;;35.07;18.37;;;-1.40;99.90;;;;;;5029011;28;20670;-74
2022/12/13 04:40:12;;;;;;;32.33;18.53;;;-1.40;99.90;;;;;;5026515;28;20590;-74
2022/12/13 04:42:38;;;;;;;32.60;17.90;;;-1.40;99.90;;;;;;5032569;28;20267;-74
2022/12/13 04:45:04;;;;;;;33.20;18.43;;;-1.40;99.90;;;;;;5029805;28;20501;-73
2022/12/13 04:47:30;;;;;;;34.20;18.37;;;-1.40;99.90;;;;;;5029374;28;20212;-74
2022/12/13 04:49:55;;;;;;;33.60;18.30;;;-1.40;99.90;;;;;;5025760;28;20443;-74
2022/12/13 04:52:21;;;;;;;30.87;17.07;;;-1.40;99.90;;;;;;5036129;28;20172;-73
2022/12/13 04:54:46;;;;;;;37.13;19.50;;;-1.40;99.90;;;;;;5030621;28;20356;-72
2022/12/13 04:57:12;;;;;;;32.53;17.90;;;-1.50;99.90;;;;;;5024324;28;20205;-73
2022/12/13 04:59:38;;;;;;;34.80;17.67;;;-1.50;99.90;;;;;;5034200;28;20206;-73
2022/12/13 05:02:06;;;;;;;33.80;17.40;;;-1.50;99.90;;;;;;5030606;28;20242;-72
2022/12/13 05:04:31;;;;;;;30.53;17.17;;;-1.50;99.90;;;;;;5012076;28;20475;-73
2022/12/13 05:06:57;;;;;;;33.80;18.60;;;-1.60;99.90;;;;;;5035733;28;20814;-73
2022/12/13 05:09:23;;;;;;;31.30;18.10;;;-1.50;99.90;;;;;;5022660;28;20201;-73
2022/12/13 05:11:49;;;;;;;32.63;17.40;;;-1.50;99.90;;;;;;5010518;28;20632;-72
2022/12/13 05:14:14;;;;;;;32.43;18.07;;;-1.50;99.90;;;;;;5032628;28;22262;-72
2022/12/13 05:16:40;;;;;;;36.97;18.70;;;-1.50;99.90;;;;;;5033391;28;20594;-72
2022/12/13 05:19:06;;;;;;;31.93;18.40;;;-1.50;99.90;;;;;;5031354;28;20212;-73
2022/12/13 05:21:33;;;;;;;31.03;18.33;;;-1.60;99.90;;;;;;5029086;28;20264;-73
2022/12/13 05:24:02;;;;;;;34.80;17.73;;;-1.60;99.90;;;;;;5036617;28;20204;-73
2022/12/13 05:26:28;;;;;;;40.30;17.03;;;-1.60;99.90;;;;;;5042137;28;20794;-74
2022/12/13 05:28:56;;;;;;;34.03;18.60;;;-1.60;99.90;;;;;;5035867;28;20490;-74
2022/12/13 05:31:22;;;;;;;30.33;18.33;;;-1.60;99.90;;;;;;5021211;28;20670;-73
2022/12/13 05:33:48;;;;;;;37.10;19.17;;;-1.60;99.90;;;;;;5037132;28;20485;-72
2022/12/13 05:36:13;;;;;;;34.20;18.17;;;-1.60;99.90;;;;;;5034099;28;20682;-73
2022/12/13 05:38:39;;;;;;;36.33;16.87;;;-1.70;99.90;;;;;;5039753;28;20177;-73
2022/12/13 05:41:05;;;;;;;29.83;18.23;;;-1.70;99.90;;;;;;5030330;28;20266;-72
2022/12/13 05:43:30;;;;;;;34.63;19.07;;;-1.70;99.90;;;;;;5019327;28;20251;-72
2022/12/13 05:45:56;;;;;;;34.97;17.97;;;-1.70;99.90;;;;;;5036240;28;20978;-73
2022/12/13 05:48:22;;;;;;;33.47;19.47;;;-1.80;99.90;;;;;;5037586;28;20254;-73
2022/12/13 05:50:47;;;;;;;32.90;18.10;;;-1.70;99.90;;;;;;5037679;28;20246;-72
2022/12/13 05:53:14;;;;;;;38.20;18.73;;;-1.80;99.90;;;;;;5039561;28;20528;-74
2022/12/13 05:55:40;;;;;;;37.47;19.53;;;-1.80;99.90;;;;;;5039081;28;20598;-74
2022/12/13 05:58:05;;;;;;;35.10;18.87;;;-1.80;99.90;;;;;;5034827;28;20449;-74
2022/12/13 06:00:31;;;;;;;34.47;17.00;;;-1.80;99.90;;;;;;5039582;28;20711;-74
2022/12/13 06:02:58;;;;;;;40.00;18.53;;;-1.80;99.90;;;;;;5038367;28;20189;-74
2022/12/13 06:05:23;;;;;;;32.13;18.10;;;-1.80;99.90;;;;;;5038497;28;21103;-74
2022/12/13 06:07:49;;;;;;;31.80;18.30;;;-1.80;99.90;;;;;;5037119;28;20921;-74
2022/12/13 06:10:15;;;;;;;29.87;18.10;;;-1.80;99.90;;;;;;5028635;28;20678;-75
2022/12/13 06:12:40;;;;;;;35.70;17.77;;;-1.80;99.90;;;;;;5035421;28;20243;-74
2022/12/13 06:15:06;;;;;;;29.70;16.83;;;-1.80;99.90;;;;;;5035048;28;20232;-74
2022/12/13 06:17:34;;;;;;;35.83;18.43;;;-1.80;99.90;;;;;;5036541;28;20192;-74
2022/12/13 06:19:59;;;;;;;38.90;20.53;;;-1.80;99.90;;;;;;5034250;28;20450;-74
2022/12/13 06:22:25;;;;;;;32.47;17.73;;;-1.80;99.90;;;;;;5036045;28;21087;-75
2022/12/13 06:24:51;;;;;;;34.83;19.60;;;-1.80;99.90;;;;;;5032738;28;20204;-73
2022/12/13 06:27:17;;;;;;;52.37;18.53;;;-1.80;99.90;;;;;;5031359;28;20445;-74
2022/12/13 06:29:42;;;;;;;30.40;17.33;;;-1.80;99.90;;;;;;5029226;28;20585;-74
2022/12/13 06:32:08;;;;;;;26.50;17.33;;;-1.80;99.90;;;;;;5033556;28;20431;-74
2022/12/13 06:34:35;;;;;;;40.80;18.27;;;-1.80;99.90;;;;;;5030576;28;20277;-74
2022/12/13 06:37:02;;;;;;;36.13;17.93;;;-1.80;99.90;;;;;;5032948;28;20666;-74
2022/12/13 06:39:28;;;;;;;33.43;19.70;;;-1.80;99.90;;;;;;5035228;28;20528;-76
2022/12/13 06:41:54;;;;;;;29.90;17.90;;;-1.80;99.90;;;;;;5031382;28;21306;-74
2022/12/13 06:44:20;;;;;;;28.77;16.63;;;-1.80;99.90;;;;;;5032969;28;20454;-74
2022/12/13 06:46:45;;;;;;;38.03;19.40;;;-1.80;99.90;;;;;;5032975;28;21043;-74
2022/12/13 06:49:11;;;;;;;38.83;19.27;;;-1.80;99.90;;;;;;5030220;28;20200;-74
2022/12/13 06:51:37;;;;;;;33.27;18.70;;;-1.80;99.90;;;;;;5014342;28;20180;-74
2022/12/13 06:54:02;;;;;;;35.97;19.43;;;-1.80;99.90;;;;;;5008183;28;20265;-74
2022/12/13 06:56:29;;;;;;;37.30;19.47;;;-1.80;99.90;;;;;;5028485;28;20777;-73
2022/12/13 06:58:55;;;;;;;38.40;20.30;;;-1.90;99.90;;;;;;5030659;28;20282;-73
2022/12/13 07:01:20;;;;;;;35.50;19.50;;;-1.90;99.90;;;;;;5031832;28;20600;-72
2022/12/13 07:03:46;;;;;;;29.43;17.17;;;-1.90;99.90;;;;;;5030221;28;20471;-72
2022/12/13 07:06:14;;;;;;;38.57;19.60;;;-1.90;99.90;;;;;;5033913;28;20176;-72
2022/12/13 07:08:41;;;;;;;34.80;19.33;;;-1.90;99.90;;;;;;5036788;28;20191;-71
2022/12/13 07:11:12;;;;;;;38.47;20.80;;;-1.90;99.90;;;;;;5034708;28;20862;-71
2022/12/13 07:13:37;;;;;;;40.70;22.00;;;-1.90;99.90;;;;;;5033147;28;20487;-71
2022/12/13 07:16:03;;;;;;;38.30;19.50;;;-1.90;99.90;;;;;;5034185;28;20431;-71
2022/12/13 07:18:29;;;;;;;40.43;22.20;;;-1.90;99.90;;;;;;5031865;28;20188;-71
2022/12/13 07:20:54;;;;;;;33.50;18.33;;;-1.90;99.90;;;;;;5028537;28;20223;-71
2022/12/13 07:23:20;;;;;;;35.70;20.27;;;-1.90;99.90;;;;;;5030796;28;20711;-71
2022/12/13 07:25:52;;;;;;;41.77;22.43;;;-1.90;99.90;;;;;;5026974;28;20176;-71
2022/12/13 07:28:19;;;;;;;37.97;20.37;;;-1.90;99.90;;;;;;5028373;28;20196;-71
2022/12/13 07:30:45;;;;;;;37.77;19.03;;;-1.90;99.90;;;;;;5032495;28;21019;-70
2022/12/13 07:33:12;;;;;;;37.73;19.57;;;-1.90;99.90;;;;;;5017142;28;20465;-71
2022/12/13 07:35:38;;;;;;;35.07;19.10;;;-1.90;99.90;;;;;;5027670;28;20454;-74
2022/12/13 07:38:04;;;;;;;40.37;20.47;;;-1.90;99.90;;;;;;5026678;28;20442;-73
2022/12/13 07:40:32;;;;;;;39.37;21.93;;;-1.90;99.90;;;;;;5033067;28;20796;-71
2022/12/13 07:42:58;;;;;;;38.47;20.33;;;-1.90;99.90;;;;;;5034554;28;21198;-68
2022/12/13 07:45:24;;;;;;;34.03;18.80;;;-1.90;99.90;;;;;;5035307;28;20494;-68
2022/12/13 07:47:50;;;;;;;34.47;18.63;;;-1.90;99.90;;;;;;5028762;28;20192;-69
2022/12/13 07:50:16;;;;;;;39.17;20.47;;;-1.80;99.90;;;;;;5021060;28;20188;-69
2022/12/13 07:52:41;;;;;;;42.20;21.50;;;-1.70;99.90;;;;;;5036381;28;20453;-71
2022/12/13 07:55:07;;;;;;;35.13;19.60;;;-1.70;99.90;;;;;;5026155;28;20473;-69
2022/12/13 07:57:34;;;;;;;39.07;22.60;;;-1.70;99.90;;;;;;5027646;28;20193;-69
2022/12/13 07:59:59;;;;;;;35.97;18.80;;;-1.70;99.90;;;;;;5008310;28;20467;-70
2022/12/13 08:02:25;;;;;;;36.77;19.67;;;-1.70;99.90;;;;;;5013392;28;20871;-72
2022/12/13 08:04:52;;;;;;;39.47;22.60;;;-1.80;99.90;;;;;;5036516;28;20231;-72
2022/12/13 08:07:17;;;;;;;39.53;23.87;;;-1.70;99.90;;;;;;5035361;28;20446;-70
2022/12/13 08:09:43;;;;;;;51.80;26.07;;;-1.70;99.90;;;;;;5031370;28;20450;-71
2022/12/13 08:12:08;;;;;;;40.10;23.77;;;-1.70;99.90;;;;;;5028242;28;20196;-71
2022/12/13 08:14:34;;;;;;;49.77;25.67;;;-1.70;99.90;;;;;;5034073;28;20223;-69
2022/12/13 08:17:00;;;;;;;39.40;22.70;;;-1.70;99.90;;;;;;5035421;28;20280;-68
2022/12/13 08:19:25;;;;;;;47.20;24.37;;;-1.70;99.90;;;;;;5026143;28;20219;-69
2022/12/13 08:21:51;;;;;;;42.90;23.27;;;-1.70;99.90;;;;;;5024593;28;21748;-70
2022/12/13 08:24:18;;;;;;;43.03;21.70;;;-1.60;99.90;;;;;;5033487;28;20545;-71
2022/12/13 08:26:43;;;;;;;40.80;21.73;;;-1.50;99.90;;;;;;5033857;28;20669;-73
2022/12/13 08:29:10;;;;;;;38.87;22.00;;;-1.50;99.90;;;;;;5026867;28;20446;-73
2022/12/13 08:31:36;;;;;;;35.67;20.10;;;-1.50;99.90;;;;;;5030664;28;20318;-73
2022/12/13 08:34:01;;;;;;;34.77;19.33;;;-1.40;99.90;;;;;;5033441;28;20548;-73
2022/12/13 08:36:27;;;;;;;31.57;18.10;;;-1.40;99.90;;;;;;5031924;28;20185;-74
2022/12/13 08:38:57;;;;;;;39.80;20.30;;;-1.30;99.90;;;;;;5018368;28;20248;-74
2022/12/13 08:41:23;;;;;;;37.53;19.53;;;-1.30;99.90;;;;;;5033793;28;20615;-73
2022/12/13 08:43:49;;;;;;;40.03;20.60;;;-1.30;99.90;;;;;;5028285;28;20823;-73
2022/12/13 08:46:14;;;;;;;37.57;19.50;;;-1.20;99.90;;;;;;5034321;28;20428;-73
2022/12/13 08:48:40;;;;;;;35.43;19.37;;;-1.20;99.90;;;;;;5032937;28;20242;-72
2022/12/13 08:51:08;;;;;;;35.03;18.00;;;-1.10;99.90;;;;;;5016547;28;20218;-74
2022/12/13 08:53:34;;;;;;;34.10;17.93;;;-1.10;99.90;;;;;;5028250;28;20342;-74
2022/12/13 08:56:00;;;;;;;31.80;20.20;;;-1.10;99.90;;;;;;5031235;28;20832;-72
2022/12/13 08:58:27;;;;;;;33.57;19.53;;;-1.10;99.90;;;;;;5033967;28;20445;-73
2022/12/13 09:01:05;;;;;;;33.80;18.87;;;-1.10;99.90;;;;;;5008336;28;20511;-75
2022/12/13 09:03:31;;;;;;;39.70;20.07;;;-1.10;99.90;;;;;;5033328;28;20465;-74
2022/12/13 09:05:56;;;;;;;30.00;18.53;;;-1.10;99.90;;;;;;5035949;28;20441;-74
2022/12/13 09:08:22;;;;;;;36.00;20.63;;;-1.10;99.90;;;;;;5034463;28;20188;-74
2022/12/13 09:10:58;;;;;;;35.70;20.10;;;-1.10;99.90;;;;;;5033008;28;20505;-74
2022/12/13 09:13:24;;;;;;;35.07;19.37;;;-1.00;99.90;;;;;;5032574;28;20254;-72
2022/12/13 09:15:50;;;;;;;36.60;19.47;;;-1.00;99.90;;;;;;5037117;28;20444;-74
2022/12/13 09:18:15;;;;;;;33.57;19.77;;;-1.00;99.90;;;;;;5028422;28;20435;-80
2022/12/13 09:20:41;;;;;;;33.10;20.80;;;-0.90;99.90;;;;;;5031060;28;20212;-76
2022/12/13 09:23:07;;;;;;;32.10;18.40;;;-0.90;99.90;;;;;;5027995;28;20181;-74
2022/12/13 09:25:32;;;;;;;33.33;19.33;;;-0.90;99.90;;;;;;5036306;28;21017;-74
2022/12/13 09:28:00;;;;;;;37.40;20.07;;;-0.80;99.90;;;;;;5035352;28;21013;-74
2022/12/13 09:30:26;;;;;;;30.37;18.07;;;-0.80;99.90;;;;;;5032340;28;20832;-72
2022/12/13 09:32:52;;;;;;;34.67;18.60;;;-0.80;99.90;;;;;;5037726;28;20930;-71
2022/12/13 09:35:18;;;;;;;33.53;18.37;;;-0.70;99.90;;;;;;5035295;28;20465;-74
2022/12/13 09:37:44;;;;;;;29.50;17.37;;;-0.70;99.90;;;;;;5034644;28;21016;-72
2022/12/13 09:40:19;;;;;;;33.63;17.53;;;-0.60;99.90;;;;;;5031331;28;21224;-72
2022/12/13 09:42:48;;;;;;;30.17;16.73;;;-0.60;99.90;;;;;;5033801;28;20450;-71
2022/12/13 09:45:14;;;;;;;25.00;16.17;;;-0.50;99.90;;;;;;5028670;28;20461;-71
2022/12/13 09:47:43;;;;;;;31.80;17.80;;;-0.50;99.90;;;;;;5033901;28;21293;-73
2022/12/13 09:50:14;;;;;;;28.23;16.83;;;-0.40;99.90;;;;;;5033978;28;20608;-70
2022/12/13 09:52:42;;;;;;;29.53;16.60;;;-0.30;99.90;;;;;;5034687;28;20468;-69
2022/12/13 09:55:28;;;;;;;42.30;18.30;;;-0.30;99.90;;;;;;5030861;28;21254;-71
2022/12/13 09:57:54;;;;;;;31.40;17.37;;;-0.30;99.90;;;;;;5036788;28;20423;-71
2022/12/13 10:00:22;;;;;;;34.00;17.70;;;-0.20;99.90;;;;;;5017728;28;20461;-71
2022/12/13 10:02:55;;;;;;;26.33;15.50;;;-0.20;99.90;;;;;;5037292;28;20899;-73
2022/12/13 10:05:28;;;;;;;26.00;16.77;;;-0.20;99.90;;;;;;5032541;28;20506;-72
2022/12/13 10:07:58;;;;;;;26.23;16.70;;;-0.10;99.90;;;;;;5036884;28;20807;-72
2022/12/13 10:10:25;;;;;;;26.40;16.33;;;-0.10;99.90;;;;;;5017243;28;20536;-71
2022/12/13 10:13:20;;;;;;;31.63;17.33;;;-0.10;99.90;;;;;;5030783;28;20491;-70
2022/12/13 10:16:12;;;;;;;31.47;18.53;;;0.00;99.90;;;;;;5006269;28;20443;-70
2022/12/13 10:18:40;;;;;;;28.77;16.23;;;0.00;99.90;;;;;;5027800;28;20429;-69
2022/12/13 10:21:19;;;;;;;26.83;16.77;;;0.10;99.90;;;;;;5032631;28;20485;-70
2022/12/13 10:23:44;;;;;;;29.27;16.90;;;0.20;99.90;;;;;;5035076;28;20458;-71
2022/12/13 10:26:12;;;;;;;32.70;18.33;;;0.20;99.90;;;;;;5017044;28;20465;-70
2022/12/13 10:28:39;;;;;;;32.83;18.80;;;0.30;99.90;;;;;;5018097;28;20670;-70
2022/12/13 10:31:05;;;;;;;30.27;17.77;;;0.30;99.90;;;;;;5036727;28;20789;-70
2022/12/13 10:33:34;;;;;;;27.90;18.07;;;0.40;99.90;;;;;;5033881;28;20463;-71
2022/12/13 10:36:37;;;;;;;25.43;15.63;;;0.40;99.90;;;;;;5032880;28;20933;-71
2022/12/13 10:39:03;;;;;;;26.83;18.63;;;0.40;99.90;;;;;;5035522;28;20559;-72
2022/12/13 10:41:37;;;;;;;30.27;16.70;;;0.50;99.90;;;;;;5035911;28;20816;-71
2022/12/13 10:44:10;;;;;;;36.33;18.30;;;0.60;99.90;;;;;;5031462;28;20462;-72
2022/12/13 10:46:37;;;;;;;25.90;15.80;;;0.60;99.90;;;;;;5022637;28;21796;-70
2022/12/13 10:49:04;;;;;;;30.63;18.00;;;0.60;99.90;;;;;;5027736;28;20450;-69
2022/12/13 10:51:38;;;;;;;29.60;17.60;;;0.60;99.90;;;;;;5023060;28;20428;-70
2022/12/13 10:54:04;;;;;;;31.60;18.67;;;0.70;99.90;;;;;;5030446;28;20455;-70
2022/12/13 10:56:46;;;;;;;28.50;17.60;;;0.70;99.90;;;;;;5027836;28;20467;-70
2022/12/13 10:59:25;;;;;;;27.40;16.90;;;0.80;99.90;;;;;;5030566;28;20884;-70
2022/12/13 11:01:51;;;;;;;28.67;18.00;;;0.90;99.90;;;;;;5037047;28;21049;-71
2022/12/13 11:04:28;;;;;;;25.27;16.53;;;0.90;99.90;;;;;;5013447;28;20460;-69
2022/12/13 11:06:55;;;;;;;28.93;17.20;;;1.00;99.90;;;;;;5030283;28;20596;-69
2022/12/13 11:09:26;;;;;;;31.80;17.83;;;1.10;99.90;;;;;;5030921;28;20507;-70
2022/12/13 11:11:53;;;;;;;27.50;18.60;;;1.10;99.90;;;;;;5011607;28;20449;-69
2022/12/13 11:14:22;;;;;;;29.00;15.17;;;1.20;99.90;;;;;;5033532;28;20470;-69
2022/12/13 11:16:55;;;;;;;21.93;15.70;;;1.20;99.90;;;;;;5033467;28;20513;-70
2022/12/13 11:19:58;;;;;;;25.13;16.20;;;1.30;99.90;;;;;;5030896;28;20465;-71
2022/12/13 11:22:24;;;;;;;30.10;16.80;;;1.30;99.90;;;;;;4921156;29;20437;-71
2022/12/13 11:24:54;;;;;;;30.27;16.30;;;1.40;99.90;;;;;;5006542;28;21000;-71
2022/12/13 11:27:26;;;;;;;28.50;17.60;;;1.50;99.90;;;;;;5015629;28;20210;-72
2022/12/13 11:30:19;;;;;;;26.10;16.30;;;1.50;99.90;;;;;;5032902;28;20443;-72
2022/12/13 11:33:11;;;;;;;26.40;14.70;;;1.50;99.90;;;;;;5033932;28;20438;-72
2022/12/13 11:35:55;;;;;;;28.87;18.60;;;1.60;99.90;;;;;;5034842;28;20809;-72
2022/12/13 11:38:44;;;;;;;29.73;17.43;;;1.60;99.90;;;;;;5028849;28;20872;-72
2022/12/13 11:41:33;;;;;;;29.17;17.83;;;1.70;99.90;;;;;;5023306;28;20479;-70
2022/12/13 11:44:10;;;;;;;29.57;17.23;;;1.70;99.90;;;;;;5035291;28;20553;-70
2022/12/13 11:46:36;;;;;;;25.30;14.20;;;1.70;99.90;;;;;;5017429;28;20512;-70
2022/12/13 11:49:08;;;;;;;30.20;16.87;;;1.80;99.90;;;;;;5034082;28;20521;-70
2022/12/13 11:51:41;;;;;;;21.07;15.03;;;1.90;99.90;;;;;;5031072;28;20188;-69
2022/12/13 11:54:18;;;;;;;25.00;15.27;;;2.00;99.90;;;;;;5013516;28;21288;-70
2022/12/13 11:56:46;;;;;;;24.10;14.03;;;2.20;99.90;;;;;;5032788;28;20437;-70
2022/12/13 11:59:35;;;;;;;31.50;13.70;;;2.30;99.90;;;;;;5030009;28;20434;-72
2022/12/13 12:02:24;;;;;;;30.50;16.57;;;2.40;99.90;;;;;;5031928;28;20466;-73
2022/12/13 12:04:52;;;;;;;26.07;16.43;;;2.40;99.90;;;;;;5030576;28;21013;-73
2022/12/13 12:07:28;;;;;;;25.73;14.30;;;2.50;99.90;;;;;;5031265;28;20434;-75
2022/12/13 12:10:03;;;;;;;25.63;13.50;;;2.50;99.90;;;;;;5032091;28;20428;-75
2022/12/13 12:12:32;;;;;;;26.97;14.90;;;2.60;99.90;;;;;;5028641;28;20445;-74
2022/12/13 12:15:13;;;;;;;21.37;12.57;;;2.60;99.90;;;;;;5035831;28;20471;-71
2022/12/13 12:17:38;;;;;;;21.30;13.37;;;2.80;99.90;;;;;;5035865;28;20422;-71
2022/12/13 12:20:10;;;;;;;28.20;14.70;;;2.90;99.90;;;;;;5037548;28;20462;-71
2022/12/13 12:22:51;;;;;;;22.37;13.70;;;3.00;99.90;;;;;;5031001;28;20190;-71
2022/12/13 12:25:31;;;;;;;19.83;13.40;;;3.00;99.90;;;;;;5026464;28;20473;-71
2022/12/13 12:28:08;;;;;;;22.13;13.77;;;3.00;99.90;;;;;;5013882;28;21198;-71
2022/12/13 12:30:43;;;;;;;21.10;13.37;;;2.90;99.90;;;;;;5030217;28;20496;-72
2022/12/13 12:33:27;;;;;;;18.37;12.43;;;3.00;99.90;;;;;;5033712;28;20417;-70
2022/12/13 12:35:59;;;;;;;20.80;14.03;;;3.10;99.90;;;;;;5018180;28;20430;-71
2022/12/13 12:38:33;;;;;;;23.90;12.20;;;3.20;99.90;;;;;;5041835;28;20450;-71
2022/12/13 12:41:27;;;;;;;21.57;13.20;;;3.30;99.90;;;;;;5018002;28;20483;-71
2022/12/13 12:44:21;;;;;;;25.70;14.70;;;3.50;99.90;;;;;;5041547;28;20437;-69